ADDS METAR Data INFO
IDs: Format: Raw Decoded Include TAF

Data at: 1916 UTC 23 Apr 2018

KVCV 231850Z 27007KT 10SM SKC 28/M02 A3004
KVCV 231747Z 25008KT 10SM SKC 27/M01 A3005
KVCV 231646Z 24007KT 10SM SKC 24/01 A3005
KVCV 231545Z 21005KT 10SM SKC 23/01 A3004
KVCV 231447Z 17005KT 10SM SKC 18/M02 A3004
KVCV 231345Z 16006KT 10SM SKC 15/M01 A3003
KVCV 231315Z AUTO 12006KT 10SM CLR 13/M02 A3002 RMK AO2
KVCV 231255Z AUTO 18008KT 10SM CLR 12/M02 A3001 RMK AO2
KVCV 231253Z 17005KT 10SM SKC 12/M02 A3001
KVCV 231235Z AUTO 18009KT 10SM CLR 13/M02 A3000 RMK AO2
KVCV 231215Z AUTO 17007KT 10SM CLR 14/M01 A3001 RMK AO2
KVCV 231155Z AUTO 17007KT 10SM CLR 12/M01 A3000 RMK AO2
KVCV 231135Z AUTO 19006KT 10SM CLR 13/M01 A3000 RMK AO2
KVCV 231115Z AUTO 17007KT 10SM CLR 13/M01 A2999 RMK AO2
KVCV 231055Z AUTO 17007KT 10SM CLR 14/M01 A3000 RMK AO2
KVCV 231035Z AUTO 16007KT 10SM CLR 15/M01 A3000 RMK AO2
KVCV 231015Z AUTO 16007KT 10SM CLR 16/M01 A2999 RMK AO2
KVCV 230955Z AUTO 16008KT 10SM CLR 15/00 A3000 RMK AO2
KVCV 230935Z AUTO 17007KT 10SM CLR 14/00 A3000 RMK AO2
KVCV 230915Z AUTO 18008KT 10SM CLR 14/M01 A3000 RMK AO2
KVCV 230855Z AUTO 19005KT 10SM CLR 14/M01 A3000 RMK AO2
KVCV 230835Z AUTO 17006KT 10SM CLR 16/00 A3000 RMK AO2
KVCV 230815Z AUTO 17006KT 10SM CLR 15/00 A3000 RMK AO2
KVCV 230755Z AUTO 17007KT 10SM CLR 16/00 A3001 RMK AO2
KVCV 230735Z AUTO 17005KT 10SM CLR 16/00 A3001 RMK AO2
KVCV 230715Z AUTO 19006KT 10SM CLR 17/00 A3001 RMK AO2
KVCV 230655Z AUTO 20008KT 10SM CLR 17/00 A3000 RMK AO2
KVCV 230635Z AUTO 20010KT 10SM CLR 17/00 A3000 RMK AO2
KVCV 230615Z AUTO 20009KT 10SM CLR 16/00 A3000 RMK AO2
KVCV 230555Z AUTO 18009KT 10SM CLR 17/00 A3000 RMK AO2
KVCV 230535Z AUTO 20006KT 10SM CLR 18/00 A3000 RMK AO2
KVCV 230515Z AUTO 20007KT 10SM CLR 18/00 A3000 RMK AO2
KVCV 230455Z AUTO 22006KT 10SM CLR 19/M01 A3000 RMK AO2
KVCV 230435Z AUTO 21005KT 10SM CLR 19/M01 A3000 RMK AO2
KVCV 230415Z AUTO 20003KT 10SM CLR 20/M01 A2999 RMK AO2
KVCV 230247Z 27005KT 10SM SKC 25/M04 A2994
KVCV 230158Z 270010KT 10SM SKC 27/M03 A2993
KVCV 230048Z 27007KT 10SM SKC 29/M05 A2992
KVCV 222345Z 24006KT 10SM SKC 31/M06 A2991
KVCV 222254Z 27007KT 10SM SKC 30/M06 A2992
KVCV 222147Z 24010KT 10SM SKC 29/M07 A2995
KVCV 222047Z 00000KT 10SM SKC 29/M07 A2997
KVCV 221950Z 00000KT 10SM SKC 29/M07 A2998
KVCV 221847Z 00000KT 10SM SKC 26/M05 A3000
KVCV 221750Z 00000KT 10SM SKC 25/M04 A3002
KVCV 221648Z 00000KT 10SM SKC 22/M02 A3003
KVCV 221545Z 00000KT 10SM SKC 17/M02 A3005
KVCV 221447Z 15004KT 10SM SKC 16/M03 A3003
KVCV 221348Z 00000KT 10SM SKC 14/M03 A3004
KVCV 221315Z AUTO 14008KT 10SM CLR 13/M03 A3003 RMK AO2
KVCV 221255Z AUTO 14004KT 10SM CLR 12/M04 A3003 RMK AO2
KVCV 221248Z 00000KT 10SM SKC 11/M04 A3003
KVCV 221235Z AUTO 19005KT 10SM CLR 12/M05 A3002 RMK AO2
KVCV 221215Z AUTO 18006KT 10SM CLR 11/M05 A3003 RMK AO2
KVCV 221155Z AUTO 18008KT 10SM CLR 11/M05 A3002 RMK AO2
KVCV 221135Z AUTO 17005KT 10SM CLR 12/M04 A3002 RMK AO2
KVCV 221115Z AUTO 18004KT 10SM CLR 13/M04 A3002 RMK AO2
KVCV 221055Z AUTO 16004KT 10SM CLR 14/M04 A3003 RMK AO2
KVCV 221035Z AUTO 16003KT 10SM CLR 13/M05 A3003 RMK AO2
KVCV 221015Z AUTO 17004KT 10SM CLR 15/M04 A3004 RMK AO2
KVCV 220955Z AUTO 17004KT 10SM CLR 14/M04 A3004 RMK AO2
KVCV 220935Z AUTO 18006KT 10SM CLR 13/M04 A3003 RMK AO2
KVCV 220915Z AUTO 16005KT 10SM CLR 16/M04 A3004 RMK AO2
KVCV 220855Z AUTO 17005KT 10SM CLR 16/M04 A3005 RMK AO2
KVCV 220835Z AUTO 19004KT 10SM CLR 15/M04 A3005 RMK AO2
KVCV 220815Z AUTO 20005KT 10SM CLR 16/M04 A3006 RMK AO2
KVCV 220755Z AUTO 20003KT 10SM CLR 16/M04 A3006 RMK AO2
KVCV 220735Z AUTO 19005KT 10SM CLR 16/M04 A3006 RMK AO2